Decoded Metar for KSUE (STURGEON BAY in WI, USA) (IATA:SUE) | Meteo·Mobile Aviation Weather
aviador You're here:

KSUE Decoded Metar

STURGEON BAY in WI, USA
Report Time2018-11-19 02:56:00
UTC Time2018-11-19 03:38:35
Flight Rules vfr VFR
Wind250° at 04 kt
W.Decomp.*RWY 28: 3.6 kt HW 1.8 kt LCW
RWY 20: 2.4 kt HW 3.2 kt RCW
W.Rank250° ranks 3
Current wind is below 250° avg. (9.1)
Visibility9999 m
Phenomena:N/A
Clouds:N/A
Expected CloudBase > 3,200 ft AGL from Temp-Dew spread
CeilingNone
Temp-2°C (ISA -16)
Dew Point-10°C (55% RH)
AAT-6.5°C
QNH1019 hPa
Density Alt-1,345 ft
Elevation725 ft
Report Wrong Elevation
Raw Report
KSUE 190256Z AUTO 25004KT 10SM CLR M02/M10 A3009 RMK AO2 SLP211
T10221100 58007 FZRANO=

Extra information for KSUE:More info

Metar Taf Metar & Taf Last 4 Metars F.Rules Stats Wind Profile Meteogram Temp Stats Airport Information Weather charts Add Link Nearby VenuesMetar ALERT Operation Metar Decoded Social comments

AIRNAV info for KSUE